sensor_id;sensor_type;location;lat;lon;timestamp;P1;durP1;ratioP1;P2;durP2;ratioP2
43142;SDS011;28750;59.842;17.584;2022-09-13T00:00:59;6.28;;;4.07;;
43142;SDS011;28750;59.842;17.584;2022-09-13T00:03:26;7.82;;;3.15;;
43142;SDS011;28750;59.842;17.584;2022-09-13T00:05:54;6.18;;;3.83;;
43142;SDS011;28750;59.842;17.584;2022-09-13T00:08:21;5.30;;;3.38;;
43142;SDS011;28750;59.842;17.584;2022-09-13T00:10:48;5.07;;;3.10;;
43142;SDS011;28750;59.842;17.584;2022-09-13T00:13:15;6.38;;;3.83;;
43142;SDS011;28750;59.842;17.584;2022-09-13T00:15:46;4.07;;;3.42;;
43142;SDS011;28750;59.842;17.584;2022-09-13T00:18:15;6.13;;;3.67;;
43142;SDS011;28750;59.842;17.584;2022-09-13T00:20:43;5.95;;;3.78;;
43142;SDS011;28750;59.842;17.584;2022-09-13T00:23:11;4.72;;;3.28;;
43142;SDS011;28750;59.842;17.584;2022-09-13T00:25:38;5.97;;;4.03;;
43142;SDS011;28750;59.842;17.584;2022-09-13T00:28:06;5.60;;;3.50;;
43142;SDS011;28750;59.842;17.584;2022-09-13T00:30:33;5.00;;;3.50;;
43142;SDS011;28750;59.842;17.584;2022-09-13T00:33:00;4.20;;;3.58;;
43142;SDS011;28750;59.842;17.584;2022-09-13T00:35:28;5.28;;;3.65;;
43142;SDS011;28750;59.842;17.584;2022-09-13T00:37:57;8.10;;;3.50;;
43142;SDS011;28750;59.842;17.584;2022-09-13T00:40:25;6.45;;;2.92;;
43142;SDS011;28750;59.842;17.584;2022-09-13T00:42:54;5.55;;;3.22;;
43142;SDS011;28750;59.842;17.584;2022-09-13T00:45:21;4.80;;;3.20;;
43142;SDS011;28750;59.842;17.584;2022-09-13T00:47:50;6.20;;;4.35;;
43142;SDS011;28750;59.842;17.584;2022-09-13T00:50:27;4.40;;;3.33;;
43142;SDS011;28750;59.842;17.584;2022-09-13T00:55:37;8.07;;;4.38;;
43142;SDS011;28750;59.842;17.584;2022-09-13T00:58:09;6.40;;;3.80;;
43142;SDS011;28750;59.842;17.584;2022-09-13T01:00:40;7.22;;;3.97;;
43142;SDS011;28750;59.842;17.584;2022-09-13T01:03:09;6.78;;;3.30;;
43142;SDS011;28750;59.842;17.584;2022-09-13T01:05:42;4.77;;;3.17;;
43142;SDS011;28750;59.842;17.584;2022-09-13T01:08:23;4.90;;;3.72;;
43142;SDS011;28750;59.842;17.584;2022-09-13T01:10:52;6.13;;;3.50;;
43142;SDS011;28750;59.842;17.584;2022-09-13T01:13:33;6.63;;;3.55;;
43142;SDS011;28750;59.842;17.584;2022-09-13T01:16:01;5.63;;;3.47;;
43142;SDS011;28750;59.842;17.584;2022-09-13T01:18:28;5.93;;;4.07;;
43142;SDS011;28750;59.842;17.584;2022-09-13T01:26:47;7.55;;;3.75;;
43142;SDS011;28750;59.842;17.584;2022-09-13T01:48:09;3.88;;;3.42;;
43142;SDS011;28750;59.842;17.584;2022-09-13T01:50:46;4.97;;;3.47;;
43142;SDS011;28750;59.842;17.584;2022-09-13T01:56:28;9.82;;;4.03;;
43142;SDS011;28750;59.842;17.584;2022-09-13T01:59:01;5.43;;;3.90;;
43142;SDS011;28750;59.842;17.584;2022-09-13T02:01:37;5.68;;;3.55;;
43142;SDS011;28750;59.842;17.584;2022-09-13T02:04:12;6.57;;;3.78;;
43142;SDS011;28750;59.842;17.584;2022-09-13T02:06:45;4.32;;;3.92;;
43142;SDS011;28750;59.842;17.584;2022-09-13T02:09:24;7.15;;;4.13;;
43142;SDS011;28750;59.842;17.584;2022-09-13T02:11:55;4.72;;;3.35;;
43142;SDS011;28750;59.842;17.584;2022-09-13T02:14:31;6.90;;;3.65;;
43142;SDS011;28750;59.842;17.584;2022-09-13T02:17:05;4.20;;;3.80;;
43142;SDS011;28750;59.842;17.584;2022-09-13T02:19:40;5.95;;;3.45;;
43142;SDS011;28750;59.842;17.584;2022-09-13T02:22:21;5.68;;;4.25;;
43142;SDS011;28750;59.842;17.584;2022-09-13T02:24:56;5.95;;;3.78;;
43142;SDS011;28750;59.842;17.584;2022-09-13T02:27:29;4.68;;;3.63;;
43142;SDS011;28750;59.842;17.584;2022-09-13T02:30:00;4.45;;;2.92;;
43142;SDS011;28750;59.842;17.584;2022-09-13T02:32:39;3.78;;;3.05;;
43142;SDS011;28750;59.842;17.584;2022-09-13T02:35:16;4.45;;;3.20;;
43142;SDS011;28750;59.842;17.584;2022-09-13T02:37:49;3.75;;;3.03;;
43142;SDS011;28750;59.842;17.584;2022-09-13T02:40:24;8.68;;;3.70;;
43142;SDS011;28750;59.842;17.584;2022-09-13T02:42:56;8.13;;;3.60;;
43142;SDS011;28750;59.842;17.584;2022-09-13T02:45:29;5.57;;;3.58;;
43142;SDS011;28750;59.842;17.584;2022-09-13T02:48:07;3.65;;;3.30;;
43142;SDS011;28750;59.842;17.584;2022-09-13T02:50:45;3.60;;;3.30;;
43142;SDS011;28750;59.842;17.584;2022-09-13T02:59:01;3.45;;;3.10;;
43142;SDS011;28750;59.842;17.584;2022-09-13T03:01:40;4.55;;;3.35;;
43142;SDS011;28750;59.842;17.584;2022-09-13T03:04:10;6.50;;;3.53;;
43142;SDS011;28750;59.842;17.584;2022-09-13T03:06:38;5.57;;;3.85;;
43142;SDS011;28750;59.842;17.584;2022-09-13T03:09:06;3.72;;;3.08;;
43142;SDS011;28750;59.842;17.584;2022-09-13T03:11:45;4.07;;;3.25;;
43142;SDS011;28750;59.842;17.584;2022-09-13T03:20:15;5.32;;;3.53;;
43142;SDS011;28750;59.842;17.584;2022-09-13T03:34:05;5.40;;;3.53;;
43142;SDS011;28750;59.842;17.584;2022-09-13T03:36:51;6.30;;;3.47;;
43142;SDS011;28750;59.842;17.584;2022-09-13T03:39:51;3.97;;;2.90;;
43142;SDS011;28750;59.842;17.584;2022-09-13T03:42:31;3.85;;;3.20;;
43142;SDS011;28750;59.842;17.584;2022-09-13T03:45:07;4.03;;;3.15;;
43142;SDS011;28750;59.842;17.584;2022-09-13T03:47:36;5.47;;;3.13;;
43142;SDS011;28750;59.842;17.584;2022-09-13T03:50:06;4.57;;;3.20;;
43142;SDS011;28750;59.842;17.584;2022-09-13T03:52:35;5.95;;;2.90;;
43142;SDS011;28750;59.842;17.584;2022-09-13T03:55:02;5.57;;;3.28;;
43142;SDS011;28750;59.842;17.584;2022-09-13T03:57:29;5.40;;;3.80;;
43142;SDS011;28750;59.842;17.584;2022-09-13T03:59:56;4.85;;;3.38;;
43142;SDS011;28750;59.842;17.584;2022-09-13T04:02:24;3.85;;;3.55;;
43142;SDS011;28750;59.842;17.584;2022-09-13T04:04:52;5.13;;;3.58;;
43142;SDS011;28750;59.842;17.584;2022-09-13T04:07:21;5.60;;;3.63;;
43142;SDS011;28750;59.842;17.584;2022-09-13T04:09:49;3.95;;;3.40;;
43142;SDS011;28750;59.842;17.584;2022-09-13T04:12:17;5.07;;;3.70;;
43142;SDS011;28750;59.842;17.584;2022-09-13T04:14:44;5.40;;;3.60;;
43142;SDS011;28750;59.842;17.584;2022-09-13T04:17:11;5.05;;;3.60;;
43142;SDS011;28750;59.842;17.584;2022-09-13T04:19:39;4.68;;;3.45;;
43142;SDS011;28750;59.842;17.584;2022-09-13T04:22:08;5.55;;;3.65;;
43142;SDS011;28750;59.842;17.584;2022-09-13T04:24:35;4.97;;;3.80;;
43142;SDS011;28750;59.842;17.584;2022-09-13T04:27:02;6.78;;;3.65;;
43142;SDS011;28750;59.842;17.584;2022-09-13T04:29:30;4.00;;;3.35;;
43142;SDS011;28750;59.842;17.584;2022-09-13T04:31:57;6.53;;;3.78;;
43142;SDS011;28750;59.842;17.584;2022-09-13T04:34:24;5.97;;;4.00;;
43142;SDS011;28750;59.842;17.584;2022-09-13T04:36:52;6.35;;;3.42;;
43142;SDS011;28750;59.842;17.584;2022-09-13T04:39:19;8.00;;;3.65;;
43142;SDS011;28750;59.842;17.584;2022-09-13T04:41:47;4.88;;;3.35;;
43142;SDS011;28750;59.842;17.584;2022-09-13T04:44:16;7.20;;;3.35;;
43142;SDS011;28750;59.842;17.584;2022-09-13T04:46:47;7.70;;;3.38;;
43142;SDS011;28750;59.842;17.584;2022-09-13T04:49:15;4.53;;;3.43;;
43142;SDS011;28750;59.842;17.584;2022-09-13T04:51:44;4.05;;;3.65;;
43142;SDS011;28750;59.842;17.584;2022-09-13T04:54:12;8.57;;;3.70;;
43142;SDS011;28750;59.842;17.584;2022-09-13T04:56:39;5.70;;;3.42;;
43142;SDS011;28750;59.842;17.584;2022-09-13T04:59:06;7.72;;;3.65;;
43142;SDS011;28750;59.842;17.584;2022-09-13T05:01:34;4.25;;;3.72;;
43142;SDS011;28750;59.842;17.584;2022-09-13T05:04:02;4.38;;;3.15;;
43142;SDS011;28750;59.842;17.584;2022-09-13T05:06:30;5.75;;;3.88;;
43142;SDS011;28750;59.842;17.584;2022-09-13T05:08:58;7.38;;;3.72;;
43142;SDS011;28750;59.842;17.584;2022-09-13T05:11:25;3.70;;;3.13;;
43142;SDS011;28750;59.842;17.584;2022-09-13T05:13:57;5.75;;;3.35;;
43142;SDS011;28750;59.842;17.584;2022-09-13T05:16:26;8.20;;;3.35;;
43142;SDS011;28750;59.842;17.584;2022-09-13T05:18:56;6.70;;;3.65;;
43142;SDS011;28750;59.842;17.584;2022-09-13T05:21:24;4.45;;;3.33;;
43142;SDS011;28750;59.842;17.584;2022-09-13T05:23:53;6.65;;;3.40;;
43142;SDS011;28750;59.842;17.584;2022-09-13T05:26:22;7.97;;;3.45;;
43142;SDS011;28750;59.842;17.584;2022-09-13T05:28:51;4.60;;;3.38;;
43142;SDS011;28750;59.842;17.584;2022-09-13T05:31:18;7.18;;;3.92;;
43142;SDS011;28750;59.842;17.584;2022-09-13T05:34:08;4.82;;;3.72;;
43142;SDS011;28750;59.842;17.584;2022-09-13T05:36:37;7.10;;;3.65;;
43142;SDS011;28750;59.842;17.584;2022-09-13T05:39:04;4.47;;;3.42;;
43142;SDS011;28750;59.842;17.584;2022-09-13T05:41:32;5.05;;;3.10;;
43142;SDS011;28750;59.842;17.584;2022-09-13T05:43:59;4.28;;;3.38;;
43142;SDS011;28750;59.842;17.584;2022-09-13T05:46:26;4.78;;;3.70;;
43142;SDS011;28750;59.842;17.584;2022-09-13T05:48:56;5.10;;;3.35;;
43142;SDS011;28750;59.842;17.584;2022-09-13T05:51:24;7.43;;;3.25;;
43142;SDS011;28750;59.842;17.584;2022-09-13T05:53:52;5.53;;;3.53;;
43142;SDS011;28750;59.842;17.584;2022-09-13T05:56:21;4.57;;;3.42;;
43142;SDS011;28750;59.842;17.584;2022-09-13T05:58:50;3.63;;;3.10;;
43142;SDS011;28750;59.842;17.584;2022-09-13T06:01:19;6.22;;;3.33;;
43142;SDS011;28750;59.842;17.584;2022-09-13T06:03:48;3.75;;;3.10;;
43142;SDS011;28750;59.842;17.584;2022-09-13T06:06:16;7.00;;;3.63;;
43142;SDS011;28750;59.842;17.584;2022-09-13T06:08:45;5.53;;;3.22;;
43142;SDS011;28750;59.842;17.584;2022-09-13T06:11:13;5.43;;;2.88;;
43142;SDS011;28750;59.842;17.584;2022-09-13T06:13:40;4.35;;;3.60;;
43142;SDS011;28750;59.842;17.584;2022-09-13T06:16:09;3.53;;;3.22;;
43142;SDS011;28750;59.842;17.584;2022-09-13T06:18:38;5.97;;;3.65;;
43142;SDS011;28750;59.842;17.584;2022-09-13T06:21:06;10.35;;;3.22;;
43142;SDS011;28750;59.842;17.584;2022-09-13T06:23:36;6.03;;;3.17;;
43142;SDS011;28750;59.842;17.584;2022-09-13T06:26:10;4.15;;;3.28;;
43142;SDS011;28750;59.842;17.584;2022-09-13T06:28:39;6.13;;;3.15;;
43142;SDS011;28750;59.842;17.584;2022-09-13T06:31:10;3.55;;;3.15;;
43142;SDS011;28750;59.842;17.584;2022-09-13T06:33:40;7.50;;;3.80;;
43142;SDS011;28750;59.842;17.584;2022-09-13T06:36:09;7.20;;;3.78;;
43142;SDS011;28750;59.842;17.584;2022-09-13T06:38:39;4.20;;;3.50;;
43142;SDS011;28750;59.842;17.584;2022-09-13T06:41:09;4.78;;;3.25;;
43142;SDS011;28750;59.842;17.584;2022-09-13T06:43:39;3.95;;;3.40;;
43142;SDS011;28750;59.842;17.584;2022-09-13T06:46:10;4.70;;;3.50;;
43142;SDS011;28750;59.842;17.584;2022-09-13T06:48:40;4.00;;;3.60;;
43142;SDS011;28750;59.842;17.584;2022-09-13T06:51:09;8.02;;;3.80;;
43142;SDS011;28750;59.842;17.584;2022-09-13T06:53:42;4.40;;;3.13;;
43142;SDS011;28750;59.842;17.584;2022-09-13T06:56:14;4.50;;;3.85;;
43142;SDS011;28750;59.842;17.584;2022-09-13T06:58:45;8.30;;;3.90;;
43142;SDS011;28750;59.842;17.584;2022-09-13T07:01:15;4.85;;;3.97;;
43142;SDS011;28750;59.842;17.584;2022-09-13T07:03:51;6.45;;;3.58;;
43142;SDS011;28750;59.842;17.584;2022-09-13T07:06:24;4.72;;;3.80;;
43142;SDS011;28750;59.842;17.584;2022-09-13T07:08:54;5.75;;;3.67;;
43142;SDS011;28750;59.842;17.584;2022-09-13T07:11:23;6.30;;;4.13;;
43142;SDS011;28750;59.842;17.584;2022-09-13T07:13:53;7.38;;;3.50;;
43142;SDS011;28750;59.842;17.584;2022-09-13T07:16:26;9.27;;;3.63;;
43142;SDS011;28750;59.842;17.584;2022-09-13T07:18:57;5.43;;;3.60;;
43142;SDS011;28750;59.842;17.584;2022-09-13T07:21:26;8.38;;;4.50;;
43142;SDS011;28750;59.842;17.584;2022-09-13T07:23:54;5.78;;;4.57;;
43142;SDS011;28750;59.842;17.584;2022-09-13T07:26:22;5.47;;;4.10;;
43142;SDS011;28750;59.842;17.584;2022-09-13T07:28:51;13.65;;;6.05;;
43142;SDS011;28750;59.842;17.584;2022-09-13T07:31:27;5.80;;;4.55;;
43142;SDS011;28750;59.842;17.584;2022-09-13T07:34:03;12.70;;;4.13;;
43142;SDS011;28750;59.842;17.584;2022-09-13T07:36:33;7.20;;;5.07;;
43142;SDS011;28750;59.842;17.584;2022-09-13T07:39:02;6.63;;;4.15;;
43142;SDS011;28750;59.842;17.584;2022-09-13T07:41:30;12.20;;;4.85;;
43142;SDS011;28750;59.842;17.584;2022-09-13T07:43:58;5.47;;;4.15;;
43142;SDS011;28750;59.842;17.584;2022-09-13T07:46:27;8.32;;;4.90;;
43142;SDS011;28750;59.842;17.584;2022-09-13T07:48:57;7.65;;;4.20;;
43142;SDS011;28750;59.842;17.584;2022-09-13T07:51:26;5.22;;;3.30;;
43142;SDS011;28750;59.842;17.584;2022-09-13T07:53:59;5.78;;;3.80;;
43142;SDS011;28750;59.842;17.584;2022-09-13T07:56:28;4.93;;;2.95;;
43142;SDS011;28750;59.842;17.584;2022-09-13T07:59:06;4.95;;;2.53;;
43142;SDS011;28750;59.842;17.584;2022-09-13T08:01:44;4.25;;;2.10;;
43142;SDS011;28750;59.842;17.584;2022-09-13T08:04:14;4.00;;;2.20;;
43142;SDS011;28750;59.842;17.584;2022-09-13T08:06:43;4.10;;;1.92;;
43142;SDS011;28750;59.842;17.584;2022-09-13T08:09:11;4.78;;;2.13;;
43142;SDS011;28750;59.842;17.584;2022-09-13T08:11:39;3.03;;;2.03;;
43142;SDS011;28750;59.842;17.584;2022-09-13T08:14:09;3.92;;;2.30;;
43142;SDS011;28750;59.842;17.584;2022-09-13T08:16:38;6.15;;;2.05;;
43142;SDS011;28750;59.842;17.584;2022-09-13T08:19:06;1.92;;;1.83;;
43142;SDS011;28750;59.842;17.584;2022-09-13T08:21:36;4.47;;;3.15;;
43142;SDS011;28750;59.842;17.584;2022-09-13T08:24:05;2.40;;;2.20;;
43142;SDS011;28750;59.842;17.584;2022-09-13T08:26:34;3.13;;;2.83;;
43142;SDS011;28750;59.842;17.584;2022-09-13T08:29:03;3.17;;;2.88;;
43142;SDS011;28750;59.842;17.584;2022-09-13T08:31:32;8.60;;;2.50;;
43142;SDS011;28750;59.842;17.584;2022-09-13T08:33:59;2.60;;;2.17;;
43142;SDS011;28750;59.842;17.584;2022-09-13T08:36:26;4.97;;;2.80;;
43142;SDS011;28750;59.842;17.584;2022-09-13T08:38:55;4.78;;;2.83;;
43142;SDS011;28750;59.842;17.584;2022-09-13T08:44:28;3.70;;;2.10;;
43142;SDS011;28750;59.842;17.584;2022-09-13T08:53:21;2.92;;;2.00;;
43142;SDS011;28750;59.842;17.584;2022-09-13T09:04:44;4.00;;;2.13;;
43142;SDS011;28750;59.842;17.584;2022-09-13T09:07:17;4.15;;;2.00;;
43142;SDS011;28750;59.842;17.584;2022-09-13T09:12:35;2.38;;;2.20;;
43142;SDS011;28750;59.842;17.584;2022-09-13T09:15:16;2.22;;;1.88;;
43142;SDS011;28750;59.842;17.584;2022-09-13T09:18:34;4.47;;;1.75;;
43142;SDS011;28750;59.842;17.584;2022-09-13T09:23:13;3.72;;;2.20;;
43142;SDS011;28750;59.842;17.584;2022-09-13T09:25:40;5.03;;;2.50;;
43142;SDS011;28750;59.842;17.584;2022-09-13T09:28:16;2.45;;;2.13;;
43142;SDS011;28750;59.842;17.584;2022-09-13T09:36:19;2.88;;;2.00;;
43142;SDS011;28750;59.842;17.584;2022-09-13T09:38:52;2.03;;;1.80;;
43142;SDS011;28750;59.842;17.584;2022-09-13T09:41:26;5.22;;;2.58;;
43142;SDS011;28750;59.842;17.584;2022-09-13T09:46:55;4.57;;;2.35;;
43142;SDS011;28750;59.842;17.584;2022-09-13T09:49:25;4.82;;;2.20;;
43142;SDS011;28750;59.842;17.584;2022-09-13T09:55:45;1.90;;;1.75;;
43142;SDS011;28750;59.842;17.584;2022-09-13T09:58:37;2.25;;;1.85;;
43142;SDS011;28750;59.842;17.584;2022-09-13T10:03:53;2.22;;;1.55;;
43142;SDS011;28750;59.842;17.584;2022-09-13T10:06:34;3.00;;;1.58;;
43142;SDS011;28750;59.842;17.584;2022-09-13T10:09:13;2.65;;;2.10;;
43142;SDS011;28750;59.842;17.584;2022-09-13T10:22:29;3.40;;;1.73;;
43142;SDS011;28750;59.842;17.584;2022-09-13T10:27:54;3.67;;;1.58;;
43142;SDS011;28750;59.842;17.584;2022-09-13T10:33:05;3.25;;;1.75;;
43142;SDS011;28750;59.842;17.584;2022-09-13T10:35:39;3.95;;;2.40;;
43142;SDS011;28750;59.842;17.584;2022-09-13T10:38:16;8.13;;;2.42;;
43142;SDS011;28750;59.842;17.584;2022-09-13T10:40:51;2.88;;;2.03;;
43142;SDS011;28750;59.842;17.584;2022-09-13T10:43:19;4.88;;;2.50;;
43142;SDS011;28750;59.842;17.584;2022-09-13T10:45:49;4.03;;;2.15;;
43142;SDS011;28750;59.842;17.584;2022-09-13T10:48:17;4.38;;;2.47;;
43142;SDS011;28750;59.842;17.584;2022-09-13T10:53:34;5.28;;;2.67;;
43142;SDS011;28750;59.842;17.584;2022-09-13T10:56:05;2.63;;;1.90;;
43142;SDS011;28750;59.842;17.584;2022-09-13T10:58:44;5.45;;;1.88;;
43142;SDS011;28750;59.842;17.584;2022-09-13T11:06:34;3.75;;;1.85;;
43142;SDS011;28750;59.842;17.584;2022-09-13T11:17:29;2.58;;;1.73;;
43142;SDS011;28750;59.842;17.584;2022-09-13T11:20:28;4.90;;;1.70;;
43142;SDS011;28750;59.842;17.584;2022-09-13T11:23:45;4.05;;;2.30;;
43142;SDS011;28750;59.842;17.584;2022-09-13T11:32:18;4.65;;;2.13;;
43142;SDS011;28750;59.842;17.584;2022-09-13T11:35:00;5.50;;;2.30;;
43142;SDS011;28750;59.842;17.584;2022-09-13T11:37:53;6.38;;;2.20;;
43142;SDS011;28750;59.842;17.584;2022-09-13T11:40:47;7.57;;;2.28;;
43142;SDS011;28750;59.842;17.584;2022-09-13T11:45:58;4.43;;;2.30;;
43142;SDS011;28750;59.842;17.584;2022-09-13T11:48:56;3.92;;;2.45;;
43142;SDS011;28750;59.842;17.584;2022-09-13T11:54:28;7.18;;;2.58;;
43142;SDS011;28750;59.842;17.584;2022-09-13T11:57:05;5.25;;;2.78;;
43142;SDS011;28750;59.842;17.584;2022-09-13T12:02:26;4.05;;;2.60;;
43142;SDS011;28750;59.842;17.584;2022-09-13T12:04:56;5.10;;;2.60;;
43142;SDS011;28750;59.842;17.584;2022-09-13T12:07:32;5.03;;;2.47;;
43142;SDS011;28750;59.842;17.584;2022-09-13T12:10:05;7.55;;;2.90;;
43142;SDS011;28750;59.842;17.584;2022-09-13T12:12:53;2.88;;;2.50;;
43142;SDS011;28750;59.842;17.584;2022-09-13T12:18:23;3.85;;;2.65;;
43142;SDS011;28750;59.842;17.584;2022-09-13T12:20:59;4.07;;;2.47;;
43142;SDS011;28750;59.842;17.584;2022-09-13T12:23:49;3.60;;;2.70;;
43142;SDS011;28750;59.842;17.584;2022-09-13T12:29:10;4.88;;;3.00;;
43142;SDS011;28750;59.842;17.584;2022-09-13T12:32:03;3.95;;;2.35;;
43142;SDS011;28750;59.842;17.584;2022-09-13T12:40:22;3.22;;;2.85;;
43142;SDS011;28750;59.842;17.584;2022-09-13T12:46:21;7.95;;;2.92;;
43142;SDS011;28750;59.842;17.584;2022-09-13T12:57:51;4.22;;;2.97;;
43142;SDS011;28750;59.842;17.584;2022-09-13T13:00:44;3.92;;;2.97;;
43142;SDS011;28750;59.842;17.584;2022-09-13T13:03:28;6.05;;;3.55;;
43142;SDS011;28750;59.842;17.584;2022-09-13T13:06:09;4.53;;;3.30;;
43142;SDS011;28750;59.842;17.584;2022-09-13T13:08:58;7.38;;;3.88;;
43142;SDS011;28750;59.842;17.584;2022-09-13T13:11:39;8.10;;;3.50;;
43142;SDS011;28750;59.842;17.584;2022-09-13T13:14:24;10.30;;;4.50;;
43142;SDS011;28750;59.842;17.584;2022-09-13T13:36:44;4.32;;;1.58;;
43142;SDS011;28750;59.842;17.584;2022-09-13T13:41:55;4.97;;;1.80;;
43142;SDS011;28750;59.842;17.584;2022-09-13T13:49:50;2.38;;;1.13;;
43142;SDS011;28750;59.842;17.584;2022-09-13T13:57:24;6.22;;;1.20;;
43142;SDS011;28750;59.842;17.584;2022-09-13T14:10:47;5.45;;;1.50;;
43142;SDS011;28750;59.842;17.584;2022-09-13T14:21:34;1.60;;;1.17;;
43142;SDS011;28750;59.842;17.584;2022-09-13T14:24:17;1.88;;;1.00;;
43142;SDS011;28750;59.842;17.584;2022-09-13T14:26:53;3.25;;;1.20;;
43142;SDS011;28750;59.842;17.584;2022-09-13T14:29:25;1.92;;;0.93;;
43142;SDS011;28750;59.842;17.584;2022-09-13T14:31:53;3.10;;;0.98;;
43142;SDS011;28750;59.842;17.584;2022-09-13T14:34:33;1.50;;;0.93;;
43142;SDS011;28750;59.842;17.584;2022-09-13T14:37:03;1.90;;;1.35;;
43142;SDS011;28750;59.842;17.584;2022-09-13T14:39:32;1.20;;;0.88;;
43142;SDS011;28750;59.842;17.584;2022-09-13T14:42:00;1.42;;;1.10;;
43142;SDS011;28750;59.842;17.584;2022-09-13T14:44:45;1.23;;;1.08;;
43142;SDS011;28750;59.842;17.584;2022-09-13T14:47:25;0.95;;;0.93;;
43142;SDS011;28750;59.842;17.584;2022-09-13T14:49:59;3.65;;;1.10;;
43142;SDS011;28750;59.842;17.584;2022-09-13T14:52:31;3.25;;;1.27;;
43142;SDS011;28750;59.842;17.584;2022-09-13T14:55:17;1.67;;;0.90;;
43142;SDS011;28750;59.842;17.584;2022-09-13T14:57:57;3.08;;;1.65;;
43142;SDS011;28750;59.842;17.584;2022-09-13T15:00:28;1.83;;;1.13;;
43142;SDS011;28750;59.842;17.584;2022-09-13T15:03:00;3.05;;;1.30;;
43142;SDS011;28750;59.842;17.584;2022-09-13T15:05:31;2.22;;;1.30;;
43142;SDS011;28750;59.842;17.584;2022-09-13T15:08:22;1.67;;;1.30;;
43142;SDS011;28750;59.842;17.584;2022-09-13T15:11:00;2.40;;;1.35;;
43142;SDS011;28750;59.842;17.584;2022-09-13T15:13:30;1.25;;;1.15;;
43142;SDS011;28750;59.842;17.584;2022-09-13T15:15:58;2.38;;;1.45;;
43142;SDS011;28750;59.842;17.584;2022-09-13T15:18:28;2.25;;;1.50;;
43142;SDS011;28750;59.842;17.584;2022-09-13T15:21:00;3.72;;;1.75;;
43142;SDS011;28750;59.842;17.584;2022-09-13T15:23:35;2.58;;;1.50;;
43142;SDS011;28750;59.842;17.584;2022-09-13T15:26:11;2.00;;;1.85;;
43142;SDS011;28750;59.842;17.584;2022-09-13T15:31:20;2.05;;;1.73;;
43142;SDS011;28750;59.842;17.584;2022-09-13T15:36:35;4.03;;;1.48;;
43142;SDS011;28750;59.842;17.584;2022-09-13T15:41:52;3.33;;;1.92;;
43142;SDS011;28750;59.842;17.584;2022-09-13T15:44:21;3.42;;;2.13;;
43142;SDS011;28750;59.842;17.584;2022-09-13T15:46:50;2.67;;;2.10;;
43142;SDS011;28750;59.842;17.584;2022-09-13T15:49:19;1.80;;;1.70;;
43142;SDS011;28750;59.842;17.584;2022-09-13T15:51:55;2.78;;;2.03;;
43142;SDS011;28750;59.842;17.584;2022-09-13T15:54:25;5.95;;;2.15;;
43142;SDS011;28750;59.842;17.584;2022-09-13T15:56:57;2.70;;;2.28;;
43142;SDS011;28750;59.842;17.584;2022-09-13T15:59:24;3.75;;;2.03;;
43142;SDS011;28750;59.842;17.584;2022-09-13T16:01:51;5.28;;;2.10;;
43142;SDS011;28750;59.842;17.584;2022-09-13T16:04:19;4.15;;;2.28;;
43142;SDS011;28750;59.842;17.584;2022-09-13T16:06:46;6.80;;;2.20;;
43142;SDS011;28750;59.842;17.584;2022-09-13T16:09:17;3.63;;;2.90;;
43142;SDS011;28750;59.842;17.584;2022-09-13T16:11:47;2.28;;;2.08;;
43142;SDS011;28750;59.842;17.584;2022-09-13T16:14:15;4.97;;;2.47;;
43142;SDS011;28750;59.842;17.584;2022-09-13T16:16:43;4.78;;;2.80;;
43142;SDS011;28750;59.842;17.584;2022-09-13T16:19:14;5.18;;;2.50;;
43142;SDS011;28750;59.842;17.584;2022-09-13T16:21:46;3.38;;;1.90;;
43142;SDS011;28750;59.842;17.584;2022-09-13T16:24:14;5.90;;;2.50;;
43142;SDS011;28750;59.842;17.584;2022-09-13T16:26:41;4.07;;;2.63;;
43142;SDS011;28750;59.842;17.584;2022-09-13T16:29:12;4.85;;;2.30;;
43142;SDS011;28750;59.842;17.584;2022-09-13T16:31:39;6.05;;;2.45;;
43142;SDS011;28750;59.842;17.584;2022-09-13T16:34:07;3.90;;;2.20;;
43142;SDS011;28750;59.842;17.584;2022-09-13T16:36:34;2.35;;;1.67;;
43142;SDS011;28750;59.842;17.584;2022-09-13T16:39:01;3.55;;;2.00;;
43142;SDS011;28750;59.842;17.584;2022-09-13T16:41:28;2.90;;;2.47;;
43142;SDS011;28750;59.842;17.584;2022-09-13T16:43:55;4.35;;;3.33;;
43142;SDS011;28750;59.842;17.584;2022-09-13T16:46:22;2.40;;;1.90;;
43142;SDS011;28750;59.842;17.584;2022-09-13T16:48:53;2.47;;;2.15;;
43142;SDS011;28750;59.842;17.584;2022-09-13T16:51:22;5.25;;;2.22;;
43142;SDS011;28750;59.842;17.584;2022-09-13T16:53:50;3.58;;;1.98;;
43142;SDS011;28750;59.842;17.584;2022-09-13T16:56:19;2.83;;;2.55;;
43142;SDS011;28750;59.842;17.584;2022-09-13T16:58:49;4.00;;;2.60;;
43142;SDS011;28750;59.842;17.584;2022-09-13T17:01:21;3.17;;;2.03;;
43142;SDS011;28750;59.842;17.584;2022-09-13T17:03:50;3.42;;;2.42;;
43142;SDS011;28750;59.842;17.584;2022-09-13T17:06:18;8.63;;;2.47;;
43142;SDS011;28750;59.842;17.584;2022-09-13T17:09:05;3.55;;;2.30;;
43142;SDS011;28750;59.842;17.584;2022-09-13T17:11:36;4.88;;;2.08;;
43142;SDS011;28750;59.842;17.584;2022-09-13T17:14:06;3.15;;;2.38;;
43142;SDS011;28750;59.842;17.584;2022-09-13T17:16:39;2.28;;;1.92;;
43142;SDS011;28750;59.842;17.584;2022-09-13T17:19:15;5.45;;;2.47;;
43142;SDS011;28750;59.842;17.584;2022-09-13T17:21:51;5.90;;;2.15;;
43142;SDS011;28750;59.842;17.584;2022-09-13T17:24:21;6.10;;;2.63;;
43142;SDS011;28750;59.842;17.584;2022-09-13T17:26:49;3.45;;;1.85;;
43142;SDS011;28750;59.842;17.584;2022-09-13T17:29:16;5.35;;;2.60;;
43142;SDS011;28750;59.842;17.584;2022-09-13T17:31:43;4.20;;;2.60;;
43142;SDS011;28750;59.842;17.584;2022-09-13T17:37:31;4.00;;;2.72;;
43142;SDS011;28750;59.842;17.584;2022-09-13T17:39:59;3.35;;;2.20;;
43142;SDS011;28750;59.842;17.584;2022-09-13T17:42:26;2.88;;;1.83;;
43142;SDS011;28750;59.842;17.584;2022-09-13T17:44:53;5.70;;;2.85;;
43142;SDS011;28750;59.842;17.584;2022-09-13T17:47:19;2.35;;;1.70;;
43142;SDS011;28750;59.842;17.584;2022-09-13T17:49:46;2.95;;;2.03;;
43142;SDS011;28750;59.842;17.584;2022-09-13T17:52:13;3.50;;;2.55;;
43142;SDS011;28750;59.842;17.584;2022-09-13T17:54:40;2.92;;;1.73;;
43142;SDS011;28750;59.842;17.584;2022-09-13T17:57:07;5.82;;;2.55;;
43142;SDS011;28750;59.842;17.584;2022-09-13T17:59:36;3.25;;;2.00;;
43142;SDS011;28750;59.842;17.584;2022-09-13T18:02:03;4.93;;;2.35;;
43142;SDS011;28750;59.842;17.584;2022-09-13T18:04:30;6.55;;;2.15;;
43142;SDS011;28750;59.842;17.584;2022-09-13T18:06:57;3.95;;;2.28;;
43142;SDS011;28750;59.842;17.584;2022-09-13T18:09:23;2.28;;;2.08;;
43142;SDS011;28750;59.842;17.584;2022-09-13T18:11:51;3.92;;;1.98;;
43142;SDS011;28750;59.842;17.584;2022-09-13T18:14:18;3.65;;;2.20;;
43142;SDS011;28750;59.842;17.584;2022-09-13T18:16:45;4.38;;;2.55;;
43142;SDS011;28750;59.842;17.584;2022-09-13T18:19:13;7.30;;;2.30;;
43142;SDS011;28750;59.842;17.584;2022-09-13T18:21:40;3.70;;;1.80;;
43142;SDS011;28750;59.842;17.584;2022-09-13T18:24:07;2.78;;;2.08;;
43142;SDS011;28750;59.842;17.584;2022-09-13T18:26:34;3.72;;;2.00;;
43142;SDS011;28750;59.842;17.584;2022-09-13T18:29:03;3.70;;;2.20;;
43142;SDS011;28750;59.842;17.584;2022-09-13T18:31:32;12.13;;;3.08;;
43142;SDS011;28750;59.842;17.584;2022-09-13T18:34:01;4.47;;;2.00;;
43142;SDS011;28750;59.842;17.584;2022-09-13T18:36:36;2.10;;;1.90;;
43142;SDS011;28750;59.842;17.584;2022-09-13T18:39:03;3.25;;;2.40;;
43142;SDS011;28750;59.842;17.584;2022-09-13T18:41:33;4.57;;;2.35;;
43142;SDS011;28750;59.842;17.584;2022-09-13T18:44:05;2.33;;;1.70;;
43142;SDS011;28750;59.842;17.584;2022-09-13T18:46:34;2.30;;;1.90;;